sensor_id;sensor_type;location;lat;lon;timestamp;pressure;altitude;pressure_sealevel;temperature;humidity
28648;BME280;17137;51.494;-0.262;2023-01-28T00:00:01;50727.31;;;-145.72;78.50
28648;BME280;17137;51.494;-0.262;2023-01-28T00:00:32;50734.22;;;-145.72;78.61
28648;BME280;17137;51.494;-0.262;2023-01-28T00:01:05;50727.31;;;-145.72;78.47
28648;BME280;17137;51.494;-0.262;2023-01-28T00:01:35;50724.23;;;-145.72;78.45
28648;BME280;17137;51.494;-0.262;2023-01-28T00:02:05;50726.57;;;-145.72;78.22
28648;BME280;17137;51.494;-0.262;2023-01-28T00:02:36;50736.56;;;-145.72;78.60
28648;BME280;17137;51.494;-0.262;2023-01-28T00:03:06;50726.70;;;-145.72;78.07
28648;BME280;17137;51.494;-0.262;2023-01-28T00:03:41;50729.53;;;-145.72;77.61
28648;BME280;17137;51.494;-0.262;2023-01-28T00:04:12;50725.71;;;-145.72;77.43
28648;BME280;17137;51.494;-0.262;2023-01-28T00:04:43;50736.07;;;-145.72;77.67
28648;BME280;17137;51.494;-0.262;2023-01-28T00:05:13;50725.71;;;-145.72;77.87
28648;BME280;17137;51.494;-0.262;2023-01-28T00:05:44;50726.94;;;-145.72;77.80
28648;BME280;17137;51.494;-0.262;2023-01-28T00:06:14;50736.68;;;-145.72;77.98
28648;BME280;17137;51.494;-0.262;2023-01-28T00:06:44;50729.04;;;-145.72;77.81
28648;BME280;17137;51.494;-0.262;2023-01-28T00:07:15;50724.48;;;-145.72;77.85
28648;BME280;17137;51.494;-0.262;2023-01-28T00:07:48;50728.42;;;-145.72;77.79
28648;BME280;17137;51.494;-0.262;2023-01-28T00:08:19;50723.86;;;-145.72;77.42
28648;BME280;17137;51.494;-0.262;2023-01-28T00:08:49;50739.77;;;-145.72;77.74
28648;BME280;17137;51.494;-0.262;2023-01-28T00:09:19;50726.57;;;-145.72;77.97
28648;BME280;17137;51.494;-0.262;2023-01-28T00:09:49;50730.40;;;-145.72;78.05
28648;BME280;17137;51.494;-0.262;2023-01-28T00:10:19;50730.03;;;-145.72;77.84
28648;BME280;17137;51.494;-0.262;2023-01-28T00:10:50;50732.00;;;-145.72;77.81
28648;BME280;17137;51.494;-0.262;2023-01-28T00:11:20;50729.16;;;-145.72;78.26
28648;BME280;17137;51.494;-0.262;2023-01-28T00:11:51;50727.07;;;-145.72;78.32
28648;BME280;17137;51.494;-0.262;2023-01-28T00:12:21;50729.16;;;-145.72;78.09
28648;BME280;17137;51.494;-0.262;2023-01-28T00:12:51;50727.56;;;-145.72;77.88
28648;BME280;17137;51.494;-0.262;2023-01-28T00:13:21;50729.66;;;-145.72;77.85
28648;BME280;17137;51.494;-0.262;2023-01-28T00:13:52;50729.53;;;-145.72;77.90
28648;BME280;17137;51.494;-0.262;2023-01-28T00:14:23;50733.23;;;-145.72;78.13
28648;BME280;17137;51.494;-0.262;2023-01-28T00:14:53;50722.75;;;-145.72;78.11
28648;BME280;17137;51.494;-0.262;2023-01-28T00:15:23;50718.19;;;-145.72;77.88
28648;BME280;17137;51.494;-0.262;2023-01-28T00:15:55;50711.16;;;-145.72;77.71
28648;BME280;17137;51.494;-0.262;2023-01-28T00:16:26;50717.82;;;-145.72;77.53
28648;BME280;17137;51.494;-0.262;2023-01-28T00:16:57;50723.00;;;-145.72;77.19
28648;BME280;17137;51.494;-0.262;2023-01-28T00:17:27;50723.49;;;-145.72;76.96
28648;BME280;17137;51.494;-0.262;2023-01-28T00:17:57;50708.82;;;-145.72;76.77
28648;BME280;17137;51.494;-0.262;2023-01-28T00:18:28;50706.11;;;-145.72;76.50
28648;BME280;17137;51.494;-0.262;2023-01-28T00:18:58;50708.70;;;-145.72;76.32
28648;BME280;17137;51.494;-0.262;2023-01-28T00:19:28;50711.90;;;-145.72;76.49
28648;BME280;17137;51.494;-0.262;2023-01-28T00:19:59;50722.75;;;-145.72;76.72
28648;BME280;17137;51.494;-0.262;2023-01-28T00:20:29;50713.01;;;-145.72;76.55
28648;BME280;17137;51.494;-0.262;2023-01-28T00:21:01;50710.18;;;-145.72;76.19
28648;BME280;17137;51.494;-0.262;2023-01-28T00:21:31;50714.99;;;-145.72;75.84
28648;BME280;17137;51.494;-0.262;2023-01-28T00:22:01;50700.44;;;-145.72;75.55
28648;BME280;17137;51.494;-0.262;2023-01-28T00:22:32;50732.00;;;-145.72;75.64
28648;BME280;17137;51.494;-0.262;2023-01-28T00:23:02;50710.30;;;-145.72;75.70
28648;BME280;17137;51.494;-0.262;2023-01-28T00:23:34;50706.48;;;-145.72;75.60
28648;BME280;17137;51.494;-0.262;2023-01-28T00:24:05;50704.88;;;-145.72;75.12
28648;BME280;17137;51.494;-0.262;2023-01-28T00:25:05;50710.92;;;-145.72;75.59
28648;BME280;17137;51.494;-0.262;2023-01-28T00:25:35;50711.16;;;-145.72;75.57
28648;BME280;17137;51.494;-0.262;2023-01-28T00:26:07;50713.75;;;-145.72;75.60
28648;BME280;17137;51.494;-0.262;2023-01-28T00:26:39;50721.03;;;-145.72;75.18
28648;BME280;17137;51.494;-0.262;2023-01-28T00:27:09;50708.95;;;-145.72;75.17
28648;BME280;17137;51.494;-0.262;2023-01-28T00:27:39;50727.44;;;-145.72;75.23
28648;BME280;17137;51.494;-0.262;2023-01-28T00:28:09;50720.90;;;-145.72;75.25
28648;BME280;17137;51.494;-0.262;2023-01-28T00:28:40;50729.29;;;-145.72;75.81
28648;BME280;17137;51.494;-0.262;2023-01-28T00:29:11;50723.12;;;-145.72;75.69
28648;BME280;17137;51.494;-0.262;2023-01-28T00:29:41;50712.40;;;-145.72;75.97
28648;BME280;17137;51.494;-0.262;2023-01-28T00:30:12;50726.45;;;-145.72;75.98
28648;BME280;17137;51.494;-0.262;2023-01-28T00:30:43;50706.23;;;-145.72;75.44
28648;BME280;17137;51.494;-0.262;2023-01-28T00:31:15;50715.48;;;-145.72;75.11
28648;BME280;17137;51.494;-0.262;2023-01-28T00:31:46;50710.30;;;-145.72;74.58
28648;BME280;17137;51.494;-0.262;2023-01-28T00:32:16;50708.82;;;-145.72;74.15
28648;BME280;17137;51.494;-0.262;2023-01-28T00:32:46;50699.95;;;-145.72;73.96
28648;BME280;17137;51.494;-0.262;2023-01-28T00:33:16;50702.78;;;-145.72;73.73
28648;BME280;17137;51.494;-0.262;2023-01-28T00:33:48;50703.15;;;-145.72;74.27
28648;BME280;17137;51.494;-0.262;2023-01-28T00:34:19;50713.14;;;-145.72;74.52
28648;BME280;17137;51.494;-0.262;2023-01-28T00:34:49;50723.86;;;-145.72;74.46
28648;BME280;17137;51.494;-0.262;2023-01-28T00:35:19;50724.73;;;-145.72;74.64
28648;BME280;17137;51.494;-0.262;2023-01-28T00:35:57;50708.21;;;-145.72;74.71
28648;BME280;17137;51.494;-0.262;2023-01-28T00:36:27;50721.15;;;-145.72;74.69
28648;BME280;17137;51.494;-0.262;2023-01-28T00:36:57;50718.81;;;-145.72;74.58
28648;BME280;17137;51.494;-0.262;2023-01-28T00:37:27;50727.68;;;-145.72;75.17
28648;BME280;17137;51.494;-0.262;2023-01-28T00:37:58;50728.67;;;-145.72;75.42
28648;BME280;17137;51.494;-0.262;2023-01-28T00:38:28;50717.82;;;-145.72;75.39
28648;BME280;17137;51.494;-0.262;2023-01-28T00:38:59;50713.26;;;-145.72;75.25
28648;BME280;17137;51.494;-0.262;2023-01-28T00:39:29;50714.49;;;-145.72;75.27
28648;BME280;17137;51.494;-0.262;2023-01-28T00:39:59;50712.89;;;-145.72;75.13
28648;BME280;17137;51.494;-0.262;2023-01-28T00:40:30;50716.34;;;-145.72;75.12
28648;BME280;17137;51.494;-0.262;2023-01-28T00:41:07;50706.97;;;-145.72;75.06
28648;BME280;17137;51.494;-0.262;2023-01-28T00:41:37;50711.78;;;-145.72;74.86
28648;BME280;17137;51.494;-0.262;2023-01-28T00:42:07;50726.82;;;-145.72;74.81
28648;BME280;17137;51.494;-0.262;2023-01-28T00:42:37;50715.48;;;-145.72;75.02
28648;BME280;17137;51.494;-0.262;2023-01-28T00:43:08;50705.74;;;-145.72;74.98
28648;BME280;17137;51.494;-0.262;2023-01-28T00:43:39;50709.32;;;-145.72;74.73
28648;BME280;17137;51.494;-0.262;2023-01-28T00:44:09;50699.58;;;-145.72;74.51
28648;BME280;17137;51.494;-0.262;2023-01-28T00:44:40;50705.00;;;-145.72;74.30
28648;BME280;17137;51.494;-0.262;2023-01-28T00:45:10;50716.10;;;-145.72;74.12
28648;BME280;17137;51.494;-0.262;2023-01-28T00:45:40;50703.89;;;-145.72;73.99
28648;BME280;17137;51.494;-0.262;2023-01-28T00:46:11;50718.19;;;-145.72;74.16
28648;BME280;17137;51.494;-0.262;2023-01-28T00:46:42;50717.21;;;-145.72;74.27
28648;BME280;17137;51.494;-0.262;2023-01-28T00:47:12;50713.38;;;-145.72;74.21
28648;BME280;17137;51.494;-0.262;2023-01-28T00:47:42;50706.48;;;-145.72;74.26
28648;BME280;17137;51.494;-0.262;2023-01-28T00:48:13;50717.94;;;-145.72;74.04
28648;BME280;17137;51.494;-0.262;2023-01-28T00:48:43;50709.68;;;-145.72;73.91
28648;BME280;17137;51.494;-0.262;2023-01-28T00:49:13;50704.14;;;-145.72;73.61
28648;BME280;17137;51.494;-0.262;2023-01-28T00:49:44;50694.27;;;-145.72;73.20
28648;BME280;17137;51.494;-0.262;2023-01-28T00:50:14;50690.21;;;-145.72;72.84
28648;BME280;17137;51.494;-0.262;2023-01-28T00:50:45;50695.75;;;-145.72;72.53
28648;BME280;17137;51.494;-0.262;2023-01-28T00:51:16;50692.30;;;-145.72;72.20
28648;BME280;17137;51.494;-0.262;2023-01-28T00:51:47;50692.43;;;-145.72;72.04
28648;BME280;17137;51.494;-0.262;2023-01-28T00:52:17;50692.80;;;-145.72;71.91
28648;BME280;17137;51.494;-0.262;2023-01-28T00:52:47;50689.96;;;-145.72;71.88
28648;BME280;17137;51.494;-0.262;2023-01-28T00:53:17;50693.29;;;-145.72;71.80
28648;BME280;17137;51.494;-0.262;2023-01-28T00:53:48;50686.63;;;-145.72;71.69
28648;BME280;17137;51.494;-0.262;2023-01-28T00:54:18;50690.45;;;-145.72;71.73
28648;BME280;17137;51.494;-0.262;2023-01-28T00:54:49;50693.66;;;-145.72;71.96
28648;BME280;17137;51.494;-0.262;2023-01-28T00:55:19;50704.63;;;-145.72;72.06
28648;BME280;17137;51.494;-0.262;2023-01-28T00:55:49;50682.69;;;-145.72;72.23
28648;BME280;17137;51.494;-0.262;2023-01-28T00:56:20;50696.86;;;-145.72;72.37
28648;BME280;17137;51.494;-0.262;2023-01-28T00:56:50;50701.79;;;-145.72;72.39
28648;BME280;17137;51.494;-0.262;2023-01-28T00:57:20;50699.95;;;-145.72;72.36
28648;BME280;17137;51.494;-0.262;2023-01-28T00:57:51;50698.96;;;-145.72;72.24
28648;BME280;17137;51.494;-0.262;2023-01-28T00:58:21;50701.06;;;-145.72;72.53
28648;BME280;17137;51.494;-0.262;2023-01-28T00:58:51;50708.21;;;-145.72;72.68
28648;BME280;17137;51.494;-0.262;2023-01-28T00:59:22;50712.03;;;-145.72;73.07
28648;BME280;17137;51.494;-0.262;2023-01-28T00:59:52;50705.86;;;-145.72;73.35
28648;BME280;17137;51.494;-0.262;2023-01-28T01:00:22;50708.95;;;-145.72;73.02
28648;BME280;17137;51.494;-0.262;2023-01-28T01:00:53;50708.70;;;-145.72;72.59
28648;BME280;17137;51.494;-0.262;2023-01-28T01:01:25;50697.23;;;-145.72;71.93
28648;BME280;17137;51.494;-0.262;2023-01-28T01:01:55;50695.01;;;-145.72;71.65
28648;BME280;17137;51.494;-0.262;2023-01-28T01:02:26;50691.56;;;-145.72;71.21
28648;BME280;17137;51.494;-0.262;2023-01-28T01:02:56;50699.58;;;-145.72;70.92
28648;BME280;17137;51.494;-0.262;2023-01-28T01:03:26;50683.67;;;-145.72;70.26
28648;BME280;17137;51.494;-0.262;2023-01-28T01:03:56;50711.16;;;-145.72;70.75
28648;BME280;17137;51.494;-0.262;2023-01-28T01:04:26;50710.92;;;-145.72;70.91
28648;BME280;17137;51.494;-0.262;2023-01-28T01:04:57;50701.06;;;-145.72;70.87
28648;BME280;17137;51.494;-0.262;2023-01-28T01:05:27;50712.52;;;-145.72;71.06
28648;BME280;17137;51.494;-0.262;2023-01-28T01:05:57;50730.27;;;-145.72;71.68
28648;BME280;17137;51.494;-0.262;2023-01-28T01:06:28;50717.33;;;-145.72;71.62
28648;BME280;17137;51.494;-0.262;2023-01-28T01:06:59;50717.70;;;-145.72;71.51
28648;BME280;17137;51.494;-0.262;2023-01-28T01:07:30;50712.27;;;-145.72;70.90
28648;BME280;17137;51.494;-0.262;2023-01-28T01:08:01;50717.94;;;-145.72;71.37
28648;BME280;17137;51.494;-0.262;2023-01-28T01:08:31;50736.07;;;-145.72;71.87
28648;BME280;17137;51.494;-0.262;2023-01-28T01:09:03;50720.04;;;-145.72;71.55
28648;BME280;17137;51.494;-0.262;2023-01-28T01:09:34;50700.56;;;-145.72;71.19
28648;BME280;17137;51.494;-0.262;2023-01-28T01:10:05;50717.45;;;-145.72;71.31
28648;BME280;17137;51.494;-0.262;2023-01-28T01:10:37;50721.27;;;-145.72;71.32
28648;BME280;17137;51.494;-0.262;2023-01-28T01:11:09;50722.75;;;-145.72;70.95
28648;BME280;17137;51.494;-0.262;2023-01-28T01:11:40;50717.33;;;-145.72;70.86
28648;BME280;17137;51.494;-0.262;2023-01-28T01:12:10;50724.97;;;-145.72;70.74
28648;BME280;17137;51.494;-0.262;2023-01-28T01:12:41;50719.18;;;-145.72;71.26
28648;BME280;17137;51.494;-0.262;2023-01-28T01:13:11;50718.93;;;-145.72;71.03
28648;BME280;17137;51.494;-0.262;2023-01-28T01:13:41;50709.32;;;-145.72;70.85
28648;BME280;17137;51.494;-0.262;2023-01-28T01:14:12;50722.63;;;-145.72;70.49
28648;BME280;17137;51.494;-0.262;2023-01-28T01:14:42;50713.51;;;-145.72;70.91
28648;BME280;17137;51.494;-0.262;2023-01-28T01:15:12;50719.79;;;-145.72;70.73
28648;BME280;17137;51.494;-0.262;2023-01-28T01:15:43;50719.30;;;-145.72;70.63
28648;BME280;17137;51.494;-0.262;2023-01-28T01:16:14;50714.49;;;-145.72;70.89
28648;BME280;17137;51.494;-0.262;2023-01-28T01:16:45;50698.34;;;-145.72;70.59
28648;BME280;17137;51.494;-0.262;2023-01-28T01:17:15;50716.22;;;-145.72;70.47
28648;BME280;17137;51.494;-0.262;2023-01-28T01:17:47;50713.26;;;-145.72;70.14
28648;BME280;17137;51.494;-0.262;2023-01-28T01:18:18;50700.56;;;-145.72;69.91
28648;BME280;17137;51.494;-0.262;2023-01-28T01:18:50;50710.79;;;-145.72;69.79
28648;BME280;17137;51.494;-0.262;2023-01-28T01:19:20;50701.92;;;-145.72;70.05
28648;BME280;17137;51.494;-0.262;2023-01-28T01:19:50;50710.67;;;-145.72;70.03
28648;BME280;17137;51.494;-0.262;2023-01-28T01:20:23;50710.18;;;-145.72;70.13
28648;BME280;17137;51.494;-0.262;2023-01-28T01:20:53;50712.03;;;-145.72;70.30
28648;BME280;17137;51.494;-0.262;2023-01-28T01:21:25;50699.45;;;-145.72;70.14
28648;BME280;17137;51.494;-0.262;2023-01-28T01:21:56;50708.58;;;-145.72;69.85
28648;BME280;17137;51.494;-0.262;2023-01-28T01:22:26;50706.85;;;-145.72;69.66
28648;BME280;17137;51.494;-0.262;2023-01-28T01:22:57;50703.40;;;-145.72;69.88
28648;BME280;17137;51.494;-0.262;2023-01-28T01:23:28;50719.42;;;-145.72;70.42
28648;BME280;17137;51.494;-0.262;2023-01-28T01:23:59;50702.90;;;-145.72;70.61
28648;BME280;17137;51.494;-0.262;2023-01-28T01:24:29;50720.29;;;-145.72;70.83
28648;BME280;17137;51.494;-0.262;2023-01-28T01:25:00;50725.10;;;-145.72;71.06
28648;BME280;17137;51.494;-0.262;2023-01-28T01:25:30;50720.78;;;-145.72;71.67
28648;BME280;17137;51.494;-0.262;2023-01-28T01:26:00;50720.04;;;-145.72;71.15
28648;BME280;17137;51.494;-0.262;2023-01-28T01:26:30;50711.90;;;-145.72;70.85
28648;BME280;17137;51.494;-0.262;2023-01-28T01:27:01;50712.52;;;-145.72;70.55
28648;BME280;17137;51.494;-0.262;2023-01-28T01:27:31;50701.55;;;-145.72;70.22
28648;BME280;17137;51.494;-0.262;2023-01-28T01:28:02;50708.95;;;-145.72;69.98
28648;BME280;17137;51.494;-0.262;2023-01-28T01:28:33;50706.73;;;-145.72;69.56
28648;BME280;17137;51.494;-0.262;2023-01-28T01:29:03;50701.79;;;-145.72;69.68
28648;BME280;17137;51.494;-0.262;2023-01-28T01:29:33;50709.81;;;-145.72;70.03
28648;BME280;17137;51.494;-0.262;2023-01-28T01:30:04;50714.00;;;-145.72;70.24
28648;BME280;17137;51.494;-0.262;2023-01-28T01:30:35;50695.38;;;-145.72;70.35
28648;BME280;17137;51.494;-0.262;2023-01-28T01:31:07;50701.18;;;-145.72;70.09
28648;BME280;17137;51.494;-0.262;2023-01-28T01:31:39;50705.49;;;-145.72;70.13
28648;BME280;17137;51.494;-0.262;2023-01-28T01:32:09;50705.00;;;-145.72;69.83
28648;BME280;17137;51.494;-0.262;2023-01-28T01:32:40;50695.26;;;-145.72;69.68
28648;BME280;17137;51.494;-0.262;2023-01-28T01:33:10;50694.40;;;-145.72;69.52
28648;BME280;17137;51.494;-0.262;2023-01-28T01:33:41;50702.41;;;-145.72;69.37
28648;BME280;17137;51.494;-0.262;2023-01-28T01:34:12;50700.56;;;-145.72;69.46
28648;BME280;17137;51.494;-0.262;2023-01-28T01:34:42;50703.52;;;-145.72;69.51
28648;BME280;17137;51.494;-0.262;2023-01-28T01:35:12;50711.41;;;-145.72;69.33
28648;BME280;17137;51.494;-0.262;2023-01-28T01:35:42;50707.10;;;-145.72;69.87
28648;BME280;17137;51.494;-0.262;2023-01-28T01:36:14;50700.81;;;-145.72;69.57
28648;BME280;17137;51.494;-0.262;2023-01-28T01:36:44;50703.52;;;-145.72;70.00
28648;BME280;17137;51.494;-0.262;2023-01-28T01:37:15;50695.38;;;-145.72;70.10
28648;BME280;17137;51.494;-0.262;2023-01-28T01:37:45;50699.95;;;-145.72;70.34
28648;BME280;17137;51.494;-0.262;2023-01-28T01:38:15;50721.64;;;-145.72;70.33
28648;BME280;17137;51.494;-0.262;2023-01-28T01:38:45;50721.52;;;-145.72;70.48
28648;BME280;17137;51.494;-0.262;2023-01-28T01:39:16;50713.75;;;-145.72;70.95
28648;BME280;17137;51.494;-0.262;2023-01-28T01:39:51;50716.47;;;-145.72;70.47
28648;BME280;17137;51.494;-0.262;2023-01-28T01:40:22;50713.14;;;-145.72;70.18
28648;BME280;17137;51.494;-0.262;2023-01-28T01:40:54;50711.41;;;-145.72;70.25
28648;BME280;17137;51.494;-0.262;2023-01-28T01:41:27;50700.81;;;-145.72;70.12
28648;BME280;17137;51.494;-0.262;2023-01-28T01:41:58;50709.32;;;-145.72;70.34
28648;BME280;17137;51.494;-0.262;2023-01-28T01:42:29;50710.30;;;-145.72;70.08
28648;BME280;17137;51.494;-0.262;2023-01-28T01:43:00;50722.88;;;-145.72;70.27
28648;BME280;17137;51.494;-0.262;2023-01-28T01:43:48;50716.96;;;-145.72;71.26
28648;BME280;17137;51.494;-0.262;2023-01-28T01:44:56;50722.75;;;-145.72;72.01
28648;BME280;17137;51.494;-0.262;2023-01-28T01:45:27;50715.73;;;-145.72;71.63
28648;BME280;17137;51.494;-0.262;2023-01-28T01:46:00;50725.22;;;-145.72;71.66
28648;BME280;17137;51.494;-0.262;2023-01-28T01:46:35;50722.14;;;-145.72;71.46
28648;BME280;17137;51.494;-0.262;2023-01-28T01:47:08;50706.73;;;-145.72;71.29
28648;BME280;17137;51.494;-0.262;2023-01-28T01:47:42;50720.78;;;-145.72;72.02
28648;BME280;17137;51.494;-0.262;2023-01-28T01:48:16;50717.94;;;-145.72;72.08
28648;BME280;17137;51.494;-0.262;2023-01-28T01:48:49;50716.71;;;-145.72;71.56
28648;BME280;17137;51.494;-0.262;2023-01-28T01:49:22;50715.60;;;-145.72;71.33
28648;BME280;17137;51.494;-0.262;2023-01-28T01:49:54;50729.90;;;-145.72;72.00
28648;BME280;17137;51.494;-0.262;2023-01-28T01:50:27;50725.96;;;-145.72;72.75
28648;BME280;17137;51.494;-0.262;2023-01-28T01:51:01;50733.60;;;-145.72;72.44
28648;BME280;17137;51.494;-0.262;2023-01-28T01:51:35;50732.25;;;-145.72;72.59
28648;BME280;17137;51.494;-0.262;2023-01-28T01:52:09;50718.07;;;-145.72;72.43
28648;BME280;17137;51.494;-0.262;2023-01-28T01:52:41;50720.04;;;-145.72;72.17
28648;BME280;17137;51.494;-0.262;2023-01-28T01:53:15;50718.93;;;-145.72;72.24
28648;BME280;17137;51.494;-0.262;2023-01-28T01:53:50;50717.33;;;-145.72;71.94
28648;BME280;17137;51.494;-0.262;2023-01-28T01:54:24;50714.12;;;-145.72;71.73
28648;BME280;17137;51.494;-0.262;2023-01-28T01:54:58;50724.23;;;-145.72;72.71
28648;BME280;17137;51.494;-0.262;2023-01-28T01:55:34;50724.97;;;-145.72;72.70
28648;BME280;17137;51.494;-0.262;2023-01-28T01:56:09;50721.52;;;-145.72;72.72
28648;BME280;17137;51.494;-0.262;2023-01-28T01:56:43;50710.79;;;-145.72;72.72
28648;BME280;17137;51.494;-0.262;2023-01-28T01:57:21;50712.15;;;-145.72;72.65
28648;BME280;17137;51.494;-0.262;2023-01-28T01:57:55;50710.55;;;-145.72;72.72
28648;BME280;17137;51.494;-0.262;2023-01-28T01:58:29;50715.36;;;-145.72;72.57
28648;BME280;17137;51.494;-0.262;2023-01-28T01:59:00;50713.88;;;-145.72;72.58
28648;BME280;17137;51.494;-0.262;2023-01-28T01:59:32;50707.59;;;-145.72;72.53
28648;BME280;17137;51.494;-0.262;2023-01-28T02:00:06;50723.86;;;-145.72;72.20
28648;BME280;17137;51.494;-0.262;2023-01-28T02:00:37;50712.64;;;-145.72;71.88
28648;BME280;17137;51.494;-0.262;2023-01-28T02:01:07;50707.34;;;-145.72;71.34
28648;BME280;17137;51.494;-0.262;2023-01-28T02:01:38;50704.51;;;-145.72;71.72
28648;BME280;17137;51.494;-0.262;2023-01-28T02:02:09;50708.82;;;-145.72;71.45
28648;BME280;17137;51.494;-0.262;2023-01-28T02:02:43;50703.27;;;-145.72;71.08
28648;BME280;17137;51.494;-0.262;2023-01-28T02:03:17;50693.54;;;-145.72;71.06
28648;BME280;17137;51.494;-0.262;2023-01-28T02:03:54;50687.74;;;-145.72;70.88
28648;BME280;17137;51.494;-0.262;2023-01-28T02:04:29;50705.49;;;-145.72;71.20
28648;BME280;17137;51.494;-0.262;2023-01-28T02:05:00;50702.78;;;-145.72;71.56
28648;BME280;17137;51.494;-0.262;2023-01-28T02:05:31;50715.48;;;-145.72;71.77
28648;BME280;17137;51.494;-0.262;2023-01-28T02:06:02;50726.70;;;-145.72;72.36
28648;BME280;17137;51.494;-0.262;2023-01-28T02:06:34;50710.67;;;-145.72;72.29
28648;BME280;17137;51.494;-0.262;2023-01-28T02:07:07;50716.34;;;-145.72;71.88
28648;BME280;17137;51.494;-0.262;2023-01-28T02:07:38;50717.94;;;-145.72;71.77
28648;BME280;17137;51.494;-0.262;2023-01-28T02:08:08;50735.94;;;-145.72;71.89
28648;BME280;17137;51.494;-0.262;2023-01-28T02:08:39;50710.18;;;-145.72;71.45
28648;BME280;17137;51.494;-0.262;2023-01-28T02:09:22;50711.90;;;-145.72;71.33
28648;BME280;17137;51.494;-0.262;2023-01-28T02:09:53;50704.01;;;-145.72;71.00
28648;BME280;17137;51.494;-0.262;2023-01-28T02:10:23;50711.78;;;-145.72;71.33
28648;BME280;17137;51.494;-0.262;2023-01-28T02:10:57;50702.90;;;-145.72;71.14
28648;BME280;17137;51.494;-0.262;2023-01-28T02:11:31;50701.18;;;-145.72;70.71
28648;BME280;17137;51.494;-0.262;2023-01-28T02:12:06;50689.71;;;-145.72;70.22
28648;BME280;17137;51.494;-0.262;2023-01-28T02:12:40;50702.16;;;-145.72;69.99
28648;BME280;17137;51.494;-0.262;2023-01-28T02:13:13;50701.06;;;-145.72;70.55
28648;BME280;17137;51.494;-0.262;2023-01-28T02:13:49;50693.54;;;-145.72;70.79
28648;BME280;17137;51.494;-0.262;2023-01-28T02:14:22;50698.71;;;-145.72;70.28
28648;BME280;17137;51.494;-0.262;2023-01-28T02:14:57;50697.23;;;-145.72;70.04
28648;BME280;17137;51.494;-0.262;2023-01-28T02:15:29;50711.78;;;-145.72;70.24
28648;BME280;17137;51.494;-0.262;2023-01-28T02:16:00;50718.81;;;-145.72;70.59
28648;BME280;17137;51.494;-0.262;2023-01-28T02:16:32;50698.84;;;-145.72;70.46
28648;BME280;17137;51.494;-0.262;2023-01-28T02:17:03;50697.11;;;-145.72;70.15
28648;BME280;17137;51.494;-0.262;2023-01-28T02:17:35;50695.26;;;-145.72;70.04
28648;BME280;17137;51.494;-0.262;2023-01-28T02:18:05;50712.64;;;-145.72;69.95
28648;BME280;17137;51.494;-0.262;2023-01-28T02:18:36;50691.93;;;-145.72;69.66
28648;BME280;17137;51.494;-0.262;2023-01-28T02:19:07;50694.89;;;-145.72;69.04
28648;BME280;17137;51.494;-0.262;2023-01-28T02:19:53;50689.47;;;-145.72;68.87
28648;BME280;17137;51.494;-0.262;2023-01-28T02:20:33;50701.18;;;-145.72;69.18
28648;BME280;17137;51.494;-0.262;2023-01-28T02:21:36;50705.74;;;-145.72;70.01
28648;BME280;17137;51.494;-0.262;2023-01-28T02:22:35;50695.51;;;-145.72;70.21
28648;BME280;17137;51.494;-0.262;2023-01-28T02:23:41;50703.77;;;-145.72;70.07
28648;BME280;17137;51.494;-0.262;2023-01-28T02:24:27;50690.58;;;-145.72;69.19
28648;BME280;17137;51.494;-0.262;2023-01-28T02:25:22;50675.91;;;-145.72;68.36
28648;BME280;17137;51.494;-0.262;2023-01-28T02:26:09;50688.85;;;-145.72;68.34
28648;BME280;17137;51.494;-0.262;2023-01-28T02:26:57;50690.95;;;-145.72;68.70
28648;BME280;17137;51.494;-0.262;2023-01-28T02:27:37;50697.36;;;-145.72;68.98
28648;BME280;17137;51.494;-0.262;2023-01-28T02:28:16;50685.40;;;-145.72;68.84
28648;BME280;17137;51.494;-0.262;2023-01-28T02:28:51;50699.08;;;-145.72;68.68
28648;BME280;17137;51.494;-0.262;2023-01-28T02:29:28;50691.44;;;-145.72;68.61
28648;BME280;17137;51.494;-0.262;2023-01-28T02:30:02;50697.60;;;-145.72;68.44
28648;BME280;17137;51.494;-0.262;2023-01-28T02:30:39;50684.66;;;-145.72;68.39
28648;BME280;17137;51.494;-0.262;2023-01-28T02:31:15;50668.76;;;-145.72;68.27
28648;BME280;17137;51.494;-0.262;2023-01-28T02:31:52;50690.08;;;-145.72;67.93
28648;BME280;17137;51.494;-0.262;2023-01-28T02:32:28;50693.29;;;-145.72;67.85
28648;BME280;17137;51.494;-0.262;2023-01-28T02:33:04;50675.54;;;-145.72;67.85
28648;BME280;17137;51.494;-0.262;2023-01-28T02:33:42;50686.63;;;-145.72;67.64
28648;BME280;17137;51.494;-0.262;2023-01-28T02:34:18;50682.69;;;-145.72;67.99
28648;BME280;17137;51.494;-0.262;2023-01-28T02:34:55;50686.01;;;-145.72;67.88
28648;BME280;17137;51.494;-0.262;2023-01-28T02:35:34;50712.64;;;-145.72;69.53
28648;BME280;17137;51.494;-0.262;2023-01-28T02:36:14;50701.67;;;-145.72;68.93
28648;BME280;17137;51.494;-0.262;2023-01-28T02:36:49;50687.25;;;-145.72;68.55
28648;BME280;17137;51.494;-0.262;2023-01-28T02:37:25;50684.29;;;-145.72;68.23
28648;BME280;17137;51.494;-0.262;2023-01-28T02:38:01;50678.25;;;-145.72;68.08
28648;BME280;17137;51.494;-0.262;2023-01-28T02:38:38;50678.12;;;-145.72;67.76
28648;BME280;17137;51.494;-0.262;2023-01-28T02:39:14;50670.85;;;-145.72;67.37
28648;BME280;17137;51.494;-0.262;2023-01-28T02:39:47;50688.73;;;-145.72;67.02
28648;BME280;17137;51.494;-0.262;2023-01-28T02:40:23;50673.44;;;-145.72;66.73
28648;BME280;17137;51.494;-0.262;2023-01-28T02:41:00;50667.40;;;-145.72;66.33
28648;BME280;17137;51.494;-0.262;2023-01-28T02:41:34;50677.26;;;-145.72;65.79
28648;BME280;17137;51.494;-0.262;2023-01-28T02:42:10;50676.89;;;-145.72;65.71
28648;BME280;17137;51.494;-0.262;2023-01-28T02:42:42;50676.28;;;-145.72;65.91
28648;BME280;17137;51.494;-0.262;2023-01-28T02:43:14;50662.35;;;-145.72;65.76
28648;BME280;17137;51.494;-0.262;2023-01-28T02:43:45;50685.40;;;-145.72;65.87
28648;BME280;17137;51.494;-0.262;2023-01-28T02:44:16;50673.69;;;-145.72;65.81
28648;BME280;17137;51.494;-0.262;2023-01-28T02:44:46;50671.71;;;-145.72;65.70
28648;BME280;17137;51.494;-0.262;2023-01-28T02:45:20;50671.71;;;-145.72;65.39
28648;BME280;17137;51.494;-0.262;2023-01-28T02:45:50;50663.82;;;-145.72;65.09